Time;durP1;ratioP1;P1;durP2;ratioP2;P2;SDS_P1;SDS_P2;PMS_P1;PMS_P2;Temp;Humidity;BMP_temperature;BMP_pressure;BME280_temperature;BME280_humidity;BME280_pressure;Samples;Min_cycle;Max_cycle;Signal;HPM_P1;HPM_P2
2023/10/02 00:04:15;;;;;;;9.17;5.13;;;17.30;68.40;16.30;97249.00;;;;4969362;28;20206;-85
2023/10/02 00:06:41;;;;;;;9.53;5.33;;;17.30;68.40;16.30;97239.00;;;;4970675;28;20306;-85
2023/10/02 00:09:24;;;;;;;7.83;4.80;;;17.30;68.30;16.20;97241.00;;;;4970641;28;20203;-85
2023/10/02 00:12:11;;;;;;;9.87;5.07;;;17.30;68.20;16.20;97241.00;;;;4971120;28;20579;-86
2023/10/02 00:14:43;;;;;;;6.10;4.73;;;17.30;68.30;16.20;97242.00;;;;4971393;28;20207;-85
2023/10/02 00:17:15;;;;;;;8.60;5.13;;;17.30;68.20;16.20;97234.00;;;;4970954;28;20716;-85
2023/10/02 00:20:13;;;;;;;9.07;5.27;;;17.30;68.60;16.20;97227.00;;;;4971638;28;20300;-86
2023/10/02 00:22:52;;;;;;;9.27;5.27;;;17.30;68.30;16.20;97232.00;;;;4970775;28;20207;-85
2023/10/02 00:25:27;;;;;;;7.87;4.50;;;17.30;68.30;16.20;97226.00;;;;4970812;28;20566;-85
2023/10/02 00:28:00;;;;;;;8.13;5.27;;;17.20;68.20;16.20;97229.00;;;;4970806;28;20226;-85
2023/10/02 00:30:35;;;;;;;8.80;5.30;;;17.20;68.20;16.20;97230.00;;;;4970500;28;20318;-85
2023/10/02 00:33:11;;;;;;;8.20;4.30;;;17.20;68.20;16.10;97236.00;;;;4971000;28;20207;-85
2023/10/02 00:35:51;;;;;;;8.20;4.50;;;17.20;68.20;16.10;97230.00;;;;4970824;28;20676;-85
2023/10/02 00:38:23;;;;;;;6.30;4.70;;;17.20;68.00;16.10;97227.00;;;;4971032;28;20662;-86
2023/10/02 00:40:55;;;;;;;8.70;4.90;;;17.20;68.20;16.10;97221.00;;;;4970340;28;20647;-86
2023/10/02 00:43:45;;;;;;;9.30;4.90;;;17.20;68.00;16.00;97208.00;;;;4969990;28;20199;-86
2023/10/02 00:46:42;;;;;;;9.60;5.50;;;17.10;67.90;16.00;97218.00;;;;4969161;28;20220;-86
2023/10/02 00:49:25;;;;;;;8.70;5.17;;;17.10;67.80;16.00;97217.00;;;;4968667;28;20216;-86
2023/10/02 00:52:00;;;;;;;7.63;5.20;;;17.10;67.60;15.90;97221.00;;;;4969128;28;20198;-85
2023/10/02 00:54:31;;;;;;;7.90;5.10;;;17.10;67.60;15.90;97222.00;;;;4969098;28;20238;-85
2023/10/02 00:56:58;;;;;;;8.33;5.17;;;17.00;67.60;15.80;97225.00;;;;4968750;28;20231;-85
2023/10/02 00:59:34;;;;;;;9.33;5.57;;;17.00;67.60;15.80;97226.00;;;;4969014;28;20253;-85
2023/10/02 01:02:05;;;;;;;8.13;5.00;;;17.00;67.70;15.80;97233.00;;;;4970854;28;20268;-85
2023/10/02 01:04:35;;;;;;;8.03;4.97;;;16.90;67.60;15.80;97232.00;;;;4970164;28;20203;-86
2023/10/02 01:07:05;;;;;;;8.70;5.40;;;16.90;67.60;15.70;97213.00;;;;4970464;28;20227;-86
2023/10/02 01:09:35;;;;;;;7.63;4.20;;;16.90;67.60;15.70;97215.00;;;;4972656;28;20223;-85
2023/10/02 01:12:03;;;;;;;8.03;5.10;;;16.90;67.70;15.70;97220.00;;;;4973989;28;20215;-86
2023/10/02 01:14:50;;;;;;;8.87;5.50;;;16.80;67.70;15.60;97209.00;;;;4973941;28;20581;-86
2023/10/02 01:17:23;;;;;;;7.40;4.93;;;16.80;67.80;15.60;97212.00;;;;4973710;28;20274;-85
2023/10/02 01:19:57;;;;;;;8.87;5.63;;;16.80;67.80;15.60;97209.00;;;;4970355;28;20211;-86
2023/10/02 01:22:30;;;;;;;7.27;4.80;;;16.80;67.90;15.60;97206.00;;;;4966498;28;20215;-87
2023/10/02 01:25:12;;;;;;;8.20;5.30;;;16.70;67.90;15.60;97203.00;;;;4972439;28;20685;-87
2023/10/02 01:27:55;;;;;;;8.60;5.00;;;16.70;68.10;15.50;97205.00;;;;4971760;28;20258;-87
2023/10/02 01:30:26;;;;;;;8.03;4.70;;;16.70;68.00;15.50;97202.00;;;;4961677;28;20227;-87
2023/10/02 01:33:17;;;;;;;12.70;5.63;;;16.70;68.10;15.50;97206.00;;;;4971940;28;20257;-86
2023/10/02 01:35:52;;;;;;;8.60;5.03;;;16.70;68.20;15.50;97209.00;;;;4973450;28;20204;-86
2023/10/02 01:38:46;;;;;;;7.67;5.07;;;16.60;68.10;15.50;97198.00;;;;4971582;28;20207;-86
2023/10/02 01:41:22;;;;;;;10.13;5.57;;;16.60;68.40;15.50;97208.00;;;;4965603;28;20226;-86
2023/10/02 01:44:00;;;;;;;7.70;4.97;;;16.60;68.20;15.50;97208.00;;;;4971320;28;20290;-87
2023/10/02 01:46:36;;;;;;;8.10;5.07;;;16.60;68.20;15.40;97208.00;;;;4971120;28;20643;-87
2023/10/02 01:49:24;;;;;;;8.67;5.07;;;16.60;69.00;15.40;97204.00;;;;4970918;28;20296;-86
2023/10/02 01:51:55;;;;;;;8.50;5.87;;;16.60;68.30;15.40;97207.00;;;;4962715;28;20620;-87
2023/10/02 01:54:35;;;;;;;8.77;5.57;;;16.50;68.20;15.40;97207.00;;;;4971405;28;20261;-87
2023/10/02 01:57:24;;;;;;;7.73;4.87;;;16.50;68.20;15.40;97209.00;;;;4963862;28;20224;-86
2023/10/02 02:00:23;;;;;;;8.90;5.80;;;16.50;68.30;15.30;97198.00;;;;4975018;28;20210;-87
2023/10/02 02:03:14;;;;;;;7.70;5.40;;;16.50;68.20;15.30;97205.00;;;;4988359;28;20216;-87
2023/10/02 02:05:46;;;;;;;10.40;5.30;;;16.50;68.10;15.30;97206.00;;;;4972620;28;20222;-87
2023/10/02 02:08:25;;;;;;;9.10;5.70;;;16.50;68.10;15.30;97197.00;;;;4965836;28;20211;-87
2023/10/02 02:11:14;;;;;;;11.27;5.97;;;16.40;68.10;15.30;97197.00;;;;4972890;28;20229;-87
2023/10/02 02:13:47;;;;;;;8.80;5.20;;;16.40;68.10;15.20;97198.00;;;;4972801;28;20222;-87
2023/10/02 02:16:22;;;;;;;9.20;5.47;;;16.40;68.20;15.20;97201.00;;;;4965668;28;20235;-87
2023/10/02 02:18:54;;;;;;;6.73;4.73;;;16.40;68.20;15.20;97198.00;;;;4972387;28;20555;-87
2023/10/02 02:21:29;;;;;;;9.83;5.93;;;16.30;68.10;15.20;97197.00;;;;4972102;28;20207;-87
2023/10/02 02:24:07;;;;;;;10.50;5.70;;;16.30;68.10;15.10;97198.00;;;;4972440;28;20211;-87
2023/10/02 02:26:36;;;;;;;9.83;5.47;;;16.30;68.10;15.10;97193.00;;;;4972801;28;20317;-87
2023/10/02 02:29:06;;;;;;;8.60;5.30;;;16.30;68.20;15.10;97191.00;;;;4972509;28;20322;-87
2023/10/02 02:31:45;;;;;;;7.53;4.60;;;16.30;68.30;15.10;97190.00;;;;4972709;28;20211;-87
2023/10/02 02:34:15;;;;;;;8.63;4.87;;;16.20;68.20;15.10;97189.00;;;;4971283;28;20261;-87
2023/10/02 02:36:49;;;;;;;8.13;5.53;;;16.20;68.20;15.00;97194.00;;;;4971634;28;20751;-87
2023/10/02 02:39:20;;;;;;;8.60;5.23;;;16.20;68.30;15.00;97197.00;;;;4971036;28;20246;-87
2023/10/02 02:42:08;;;;;;;7.53;4.80;;;16.20;68.30;15.00;97189.00;;;;4971372;28;20552;-87
2023/10/02 02:44:45;;;;;;;10.20;4.90;;;16.20;68.40;15.00;97192.00;;;;4971813;28;20256;-87
2023/10/02 02:47:16;;;;;;;8.03;4.50;;;16.20;68.40;15.00;97187.00;;;;4963674;28;20325;-87
2023/10/02 02:50:01;;;;;;;9.63;5.13;;;16.10;68.30;14.90;97187.00;;;;4971357;28;20288;-87
2023/10/02 02:52:35;;;;;;;7.87;5.03;;;16.10;68.40;14.90;97187.00;;;;4971828;28;20200;-87
2023/10/02 02:55:05;;;;;;;5.67;4.80;;;16.10;68.40;14.90;97186.00;;;;4972728;28;20204;-87
2023/10/02 02:57:39;;;;;;;10.83;5.57;;;16.10;68.50;14.90;97187.00;;;;4972377;28;20318;-86
2023/10/02 03:00:35;;;;;;;8.73;4.80;;;16.00;68.40;14.90;97187.00;;;;4956131;28;20214;-87
2023/10/02 03:03:32;;;;;;;8.13;4.47;;;16.00;68.40;14.80;97181.00;;;;4972391;28;20250;-86
2023/10/02 03:06:04;;;;;;;7.70;5.13;;;16.00;68.30;14.80;97187.00;;;;4971800;28;20215;-87
2023/10/02 03:08:38;;;;;;;8.30;4.87;;;16.00;68.40;14.80;97186.00;;;;4963773;28;20199;-87
2023/10/02 03:11:23;;;;;;;8.37;5.00;;;16.00;68.40;14.70;97184.00;;;;4972215;28;20310;-86
2023/10/02 03:13:51;;;;;;;10.07;5.90;;;15.90;68.50;14.70;97184.00;;;;4972406;28;20238;-87
2023/10/02 03:16:29;;;;;;;8.50;5.30;;;15.90;68.50;14.70;97186.00;;;;4972370;28;20314;-87
2023/10/02 03:19:16;;;;;;;10.13;5.50;;;15.90;68.60;14.70;97191.00;;;;4971747;28;20623;-87
2023/10/02 03:21:43;;;;;;;8.83;5.27;;;15.90;68.80;14.70;97187.00;;;;4968238;28;20210;-87
2023/10/02 03:24:18;;;;;;;7.77;5.13;;;15.90;68.60;14.70;97176.00;;;;4971485;28;20237;-87
2023/10/02 03:26:52;;;;;;;10.37;5.57;;;15.90;68.50;14.70;97174.00;;;;4963252;28;20316;-86
2023/10/02 03:29:36;;;;;;;8.10;5.00;;;15.80;68.50;14.70;97182.00;;;;4970426;28;20281;-87
2023/10/02 03:32:14;;;;;;;8.33;5.20;;;15.80;68.50;14.60;97177.00;;;;4968152;28;20261;-87
2023/10/02 03:34:48;;;;;;;8.57;5.10;;;15.80;68.50;14.60;97173.00;;;;4967325;28;20665;-87
2023/10/02 03:37:21;;;;;;;9.33;5.57;;;15.80;68.60;14.60;97167.00;;;;4955065;28;20223;-87
2023/10/02 03:40:00;;;;;;;8.00;5.30;;;15.80;68.60;14.60;97169.00;;;;4968058;28;20249;-87
2023/10/02 03:42:31;;;;;;;9.00;4.90;;;15.70;68.60;14.60;97172.00;;;;4958571;28;20277;-87
2023/10/02 03:44:59;;;;;;;10.33;5.30;;;15.70;68.70;14.60;97179.00;;;;4970380;28;20207;-87
2023/10/02 03:47:33;;;;;;;8.13;5.37;;;15.70;68.70;14.50;97180.00;;;;4968899;28;20292;-87
2023/10/02 03:50:02;;;;;;;7.73;5.20;;;15.80;68.80;14.50;97177.00;;;;4971518;28;20231;-86
2023/10/02 03:52:33;;;;;;;9.07;5.23;;;15.70;68.70;14.50;97176.00;;;;4967650;28;20286;-87
2023/10/02 03:55:15;;;;;;;8.63;5.57;;;15.70;68.70;14.50;97179.00;;;;4968752;28;20328;-86
2023/10/02 03:58:02;;;;;;;7.97;5.17;;;15.70;68.70;14.50;97169.00;;;;4957986;28;20649;-86
2023/10/02 04:00:43;;;;;;;10.00;5.93;;;15.70;68.70;14.50;97171.00;;;;4957414;28;20226;-87
2023/10/02 04:03:21;;;;;;;9.70;5.33;;;15.70;68.70;14.50;97173.00;;;;4966944;28;20217;-86
2023/10/02 04:06:00;;;;;;;7.60;5.27;;;15.60;68.60;14.40;97159.00;;;;4970559;28;20616;-86
2023/10/02 04:08:37;;;;;;;8.27;4.67;;;15.60;68.60;14.40;97163.00;;;;4971238;28;20214;-86
2023/10/02 04:11:14;;;;;;;8.10;5.40;;;15.60;68.60;14.40;97164.00;;;;4970572;28;20233;-86
2023/10/02 04:13:49;;;;;;;9.63;5.50;;;15.60;68.60;14.40;97166.00;;;;4970732;28;20294;-86
2023/10/02 04:16:31;;;;;;;8.10;5.40;;;15.60;68.70;14.40;97172.00;;;;4964515;28;20317;-87
2023/10/02 04:19:06;;;;;;;7.93;5.40;;;15.60;68.70;14.40;97180.00;;;;4970216;28;20261;-87
2023/10/02 04:21:48;;;;;;;9.80;5.50;;;15.60;68.80;14.30;97182.00;;;;4971376;28;20217;-87
2023/10/02 04:24:23;;;;;;;9.73;5.83;;;15.60;68.90;14.30;97183.00;;;;4963922;28;20199;-87
2023/10/02 04:26:54;;;;;;;10.67;5.93;;;15.50;68.80;14.30;97176.00;;;;4970684;28;20647;-87
2023/10/02 04:29:28;;;;;;;11.00;6.70;;;15.50;68.90;14.30;97171.00;;;;4970615;28;20265;-87
2023/10/02 04:32:15;;;;;;;12.33;6.90;;;15.50;69.00;14.30;97171.00;;;;4969585;28;20276;-86
2023/10/02 04:34:56;;;;;;;13.77;6.70;;;15.50;69.10;14.30;97173.00;;;;4970175;28;20211;-87
2023/10/02 04:37:31;;;;;;;11.60;6.93;;;15.50;69.60;14.30;97171.00;;;;4968541;28;20314;-86
2023/10/02 04:40:22;;;;;;;13.00;7.30;;;15.40;69.40;14.30;97178.00;;;;4992401;28;20203;-86
2023/10/02 04:43:15;;;;;;;12.77;6.30;;;15.50;69.60;14.30;97172.00;;;;4968369;28;20235;-86
2023/10/02 04:45:50;;;;;;;10.17;6.63;;;15.50;69.70;14.40;97175.00;;;;4970115;28;20195;-86
2023/10/02 04:48:25;;;;;;;11.80;7.23;;;15.50;69.80;14.40;97184.00;;;;4972957;28;20676;-86
2023/10/02 04:50:56;;;;;;;9.50;5.93;;;15.50;70.00;14.40;97183.00;;;;4973274;28;20223;-86
2023/10/02 04:53:25;;;;;;;12.43;6.57;;;15.50;70.10;14.40;97186.00;;;;4973068;28;20374;-86
2023/10/02 04:56:13;;;;;;;10.07;5.80;;;15.50;69.90;14.40;97170.00;;;;4973145;28;20666;-86
2023/10/02 04:58:49;;;;;;;10.70;6.70;;;15.60;69.90;14.40;97173.00;;;;4974312;28;20208;-86
2023/10/02 05:01:34;;;;;;;13.07;6.53;;;15.60;69.70;14.40;97180.00;;;;4967853;28;20211;-86
2023/10/02 05:04:03;;;;;;;11.00;6.57;;;15.60;69.60;14.40;97177.00;;;;4974596;28;20241;-84
2023/10/02 05:06:43;;;;;;;9.47;6.00;;;15.60;69.50;14.40;97165.00;;;;4979503;28;20227;-87
2023/10/02 05:09:21;;;;;;;11.50;6.37;;;15.60;69.50;14.40;97167.00;;;;4968958;28;20614;-87
2023/10/02 05:11:52;;;;;;;9.93;6.00;;;15.60;69.50;14.30;97167.00;;;;4977895;28;20569;-87
2023/10/02 05:14:26;;;;;;;9.67;6.27;;;15.60;69.40;14.40;97182.00;;;;4976841;28;20214;-87
2023/10/02 05:19:56;;;;;;;11.00;6.37;;;15.90;69.70;14.40;97179.00;;;;4980471;28;20207;-87
2023/10/02 05:22:24;;;;;;;10.60;6.33;;;15.60;69.50;14.40;97175.00;;;;4969820;28;20221;-87
2023/10/02 05:24:58;;;;;;;10.03;6.27;;;15.60;69.60;14.40;97176.00;;;;4977781;28;20203;-87
2023/10/02 05:27:30;;;;;;;9.50;6.23;;;15.60;69.60;14.40;97182.00;;;;4973033;28;20235;-87
2023/10/02 05:30:12;;;;;;;12.37;7.07;;;15.70;69.60;14.50;97186.00;;;;4978356;28;20232;-87
2023/10/02 05:32:41;;;;;;;10.00;6.33;;;15.60;69.50;14.50;97187.00;;;;4978299;28;20290;-87
2023/10/02 05:35:23;;;;;;;12.03;6.57;;;15.70;69.50;14.50;97190.00;;;;4967301;28;20199;-88
2023/10/02 05:37:55;;;;;;;9.93;6.13;;;15.70;69.40;14.50;97183.00;;;;4963899;28;20231;-90
2023/10/02 05:40:37;;;;;;;9.17;6.00;;;15.70;69.40;14.50;97192.00;;;;4962548;28;20298;-89
2023/10/02 05:43:12;;;;;;;10.13;6.30;;;15.70;69.30;14.50;97194.00;;;;4976634;28;20247;-88
2023/10/02 05:45:53;;;;;;;9.63;6.53;;;15.70;69.20;14.50;97193.00;;;;4974253;28;20199;-88
2023/10/02 05:51:12;;;;;;;10.00;6.10;;;15.70;69.30;14.50;97202.00;;;;4916759;28;20219;-88
2023/10/02 05:53:53;;;;;;;8.77;5.33;;;15.70;69.40;14.50;97206.00;;;;4971514;28;20226;-89
2023/10/02 05:56:20;;;;;;;10.00;6.40;;;15.70;69.40;14.50;97211.00;;;;4975101;28;20218;-88
2023/10/02 05:58:49;;;;;;;8.30;5.43;;;15.70;69.40;14.50;97201.00;;;;4975852;28;20215;-88
2023/10/02 06:01:23;;;;;;;8.60;5.70;;;15.70;70.20;14.50;97207.00;;;;4980384;28;20215;-88
2023/10/02 06:03:56;;;;;;;9.27;6.10;;;15.70;69.60;14.50;97207.00;;;;4979018;28;20207;-88
2023/10/02 06:06:27;;;;;;;7.57;5.23;;;15.70;69.80;14.60;97213.00;;;;4977937;28;20273;-87
2023/10/02 06:09:02;;;;;;;8.10;5.60;;;15.70;70.00;14.60;97218.00;;;;4977115;28;20211;-88
2023/10/02 06:11:33;;;;;;;8.70;4.97;;;15.60;70.10;14.60;97218.00;;;;4977655;28;20231;-87
2023/10/02 06:14:12;;;;;;;6.23;4.77;;;15.70;70.20;14.60;97224.00;;;;4977392;28;20214;-87
2023/10/02 06:16:41;;;;;;;6.23;4.90;;;15.80;70.40;14.70;97227.00;;;;4977048;28;20238;-88
2023/10/02 06:19:13;;;;;;;8.73;5.63;;;15.80;70.50;14.70;97230.00;;;;4974547;28;20721;-87
2023/10/02 06:22:04;;;;;;;7.23;4.90;;;15.80;70.80;14.70;97230.00;;;;4973005;28;20214;-87
2023/10/02 06:24:33;;;;;;;7.33;5.17;;;15.80;70.90;14.80;97233.00;;;;4970824;28;20200;-87
2023/10/02 06:27:04;;;;;;;6.77;4.80;;;15.80;70.90;14.80;97229.00;;;;4967640;28;20243;-87
2023/10/02 06:29:35;;;;;;;8.37;4.87;;;15.90;71.20;14.80;97225.00;;;;4971918;28;20231;-87
2023/10/02 06:32:05;;;;;;;7.27;5.33;;;15.90;71.40;14.90;97225.00;;;;4968758;28;20231;-87
2023/10/02 06:34:39;;;;;;;8.30;5.07;;;16.00;71.60;14.90;97223.00;;;;4970015;28;20192;-87
2023/10/02 06:37:08;;;;;;;6.40;4.90;;;16.00;71.70;15.00;97217.00;;;;4971042;28;20295;-87
2023/10/02 06:39:43;;;;;;;7.07;4.57;;;16.00;71.70;15.00;97229.00;;;;4978082;28;20650;-87
2023/10/02 06:42:15;;;;;;;6.27;4.60;;;16.10;72.10;15.10;97230.00;;;;4971047;28;20202;-87
2023/10/02 06:44:52;;;;;;;6.70;4.93;;;16.10;72.00;15.10;97225.00;;;;4978433;28;20232;-87
2023/10/02 06:47:23;;;;;;;5.83;4.27;;;16.10;72.00;15.20;97232.00;;;;4977650;28;20223;-87
2023/10/02 06:49:52;;;;;;;6.43;4.70;;;16.20;72.10;15.20;97229.00;;;;4977490;28;20222;-87
2023/10/02 06:52:21;;;;;;;5.30;4.63;;;16.20;72.90;15.20;97237.00;;;;4977587;28;20211;-88
2023/10/02 06:54:56;;;;;;;5.43;4.50;;;16.30;72.40;15.30;97231.00;;;;4978028;28;20202;-87
2023/10/02 06:57:25;;;;;;;5.30;4.03;;;16.30;72.60;15.30;97236.00;;;;4969716;28;20219;-87
2023/10/02 06:59:53;;;;;;;7.50;4.63;;;16.40;72.80;15.40;97232.00;;;;4977921;28;20646;-87
2023/10/02 07:02:23;;;;;;;7.57;4.90;;;16.40;72.90;15.50;97238.00;;;;4978489;28;20681;-87
2023/10/02 07:04:52;;;;;;;5.67;4.53;;;16.40;72.90;15.50;97231.00;;;;4977146;28;20612;-87
2023/10/02 07:07:24;;;;;;;4.73;4.33;;;16.50;73.10;15.60;97235.00;;;;4962991;28;20230;-87
2023/10/02 07:09:55;;;;;;;4.70;4.13;;;16.60;73.30;15.70;97228.00;;;;4978444;28;20261;-87
2023/10/02 07:12:27;;;;;;;5.10;4.60;;;16.60;73.50;15.80;97222.00;;;;4974201;28;20212;-89
2023/10/02 07:15:10;;;;;;;8.00;5.70;;;16.70;73.60;15.80;97242.00;;;;4973589;28;20224;-89
2023/10/02 07:17:47;;;;;;;8.60;5.70;;;16.70;73.90;15.90;97234.00;;;;4972304;28;20716;-89
2023/10/02 07:20:20;;;;;;;7.67;5.63;;;16.80;74.20;16.00;97239.00;;;;4971305;28;20729;-89
2023/10/02 07:22:47;;;;;;;8.87;5.40;;;16.90;74.60;16.10;97239.00;;;;4971385;28;20681;-89
2023/10/02 07:25:20;;;;;;;8.20;5.60;;;17.00;74.70;16.20;97236.00;;;;4952485;29;20721;-89
2023/10/02 07:27:48;;;;;;;8.93;6.07;;;17.00;74.80;16.30;97241.00;;;;4961061;28;20246;-88
2023/10/02 07:30:25;;;;;;;7.73;5.47;;;17.10;75.00;16.40;97244.00;;;;4971892;28;20264;-89
2023/10/02 07:32:53;;;;;;;10.53;6.57;;;17.20;75.20;16.50;97243.00;;;;4973900;28;20202;-88
2023/10/02 07:35:22;;;;;;;9.60;6.07;;;17.30;75.10;16.60;97242.00;;;;4970397;28;20200;-89
2023/10/02 07:37:58;;;;;;;7.87;6.07;;;17.40;75.20;16.70;97241.00;;;;4954942;28;20251;-88
2023/10/02 07:40:46;;;;;;;9.80;6.53;;;17.40;75.20;16.80;97235.00;;;;4954604;28;20294;-89
2023/10/02 07:43:14;;;;;;;11.93;6.93;;;17.60;76.00;16.90;97235.00;;;;4955560;28;20193;-88
2023/10/02 07:45:41;;;;;;;9.67;6.80;;;17.70;75.20;17.10;97249.00;;;;4953832;29;20196;-88
2023/10/02 07:48:12;;;;;;;11.73;7.50;;;17.80;75.20;17.20;97248.00;;;;4953692;29;20635;-89
2023/10/02 07:50:41;;;;;;;12.97;7.67;;;17.90;75.30;17.30;97248.00;;;;4953531;29;20228;-89
2023/10/02 07:53:09;;;;;;;12.30;7.13;;;18.00;75.20;17.50;97249.00;;;;4953929;29;20291;-90
2023/10/02 07:55:42;;;;;;;12.10;7.20;;;18.10;75.10;17.60;97248.00;;;;4953703;29;20763;-89
2023/10/02 07:58:13;;;;;;;12.67;6.93;;;18.20;74.90;17.70;97253.00;;;;4952479;29;20254;-89
2023/10/02 08:00:41;;;;;;;12.60;7.03;;;18.40;74.90;17.80;97256.00;;;;4969176;28;20290;-89
2023/10/02 08:03:34;;;;;;;11.67;6.70;;;18.50;74.70;17.90;97255.00;;;;4952337;29;20235;-89
2023/10/02 08:06:20;;;;;;;9.97;6.37;;;18.60;75.20;18.00;97254.00;;;;4953379;29;20223;-89
2023/10/02 08:08:54;;;;;;;11.80;6.63;;;18.70;74.40;18.20;97254.00;;;;4969442;28;20303;-88
2023/10/02 08:11:25;;;;;;;10.13;5.87;;;18.80;74.40;18.30;97259.00;;;;4971755;28;20226;-89
2023/10/02 08:13:52;;;;;;;10.67;6.47;;;19.00;75.50;18.50;97254.00;;;;4970399;28;20200;-89
2023/10/02 08:16:22;;;;;;;13.40;7.30;;;19.10;74.60;18.60;97257.00;;;;4970885;28;20230;-89
2023/10/02 08:18:58;;;;;;;15.00;7.83;;;19.20;74.10;18.70;97255.00;;;;4963302;28;20203;-89
2023/10/02 08:21:45;;;;;;;13.43;7.70;;;19.40;74.10;18.90;97253.00;;;;4969651;28;20206;-89
2023/10/02 08:24:14;;;;;;;15.53;7.53;;;19.50;74.00;19.00;97256.00;;;;4955954;28;20230;-90
2023/10/02 08:26:44;;;;;;;14.30;7.17;;;19.70;73.60;19.10;97257.00;;;;4963346;28;20269;-89
2023/10/02 08:29:14;;;;;;;11.73;6.70;;;19.80;73.50;19.30;97263.00;;;;4964243;28;20238;-89
2023/10/02 08:31:44;;;;;;;14.20;7.00;;;19.90;73.40;19.40;97265.00;;;;4963703;28;20226;-89
2023/10/02 08:34:13;;;;;;;12.97;6.97;;;20.00;73.30;19.50;97263.00;;;;4976720;28;20546;-89
2023/10/02 08:36:41;;;;;;;12.57;6.03;;;20.10;73.10;19.60;97265.00;;;;4975265;28;20651;-90
2023/10/02 08:39:09;;;;;;;10.93;5.97;;;20.30;72.90;19.70;97258.00;;;;4974518;28;20209;-89
2023/10/02 08:41:44;;;;;;;11.87;6.30;;;20.40;72.80;19.80;97269.00;;;;4974437;28;20221;-89
2023/10/02 08:44:24;;;;;;;11.73;6.63;;;20.50;72.70;20.00;97268.00;;;;4974702;28;20187;-89
2023/10/02 08:46:55;;;;;;;13.17;6.53;;;20.60;72.20;20.00;97262.00;;;;4974373;28;20320;-89
2023/10/02 08:49:25;;;;;;;12.33;6.37;;;20.70;72.00;20.20;97257.00;;;;4974452;28;20200;-89
2023/10/02 08:51:52;;;;;;;14.17;7.00;;;20.80;72.70;20.30;97266.00;;;;4974293;28;20720;-90
2023/10/02 08:54:27;;;;;;;12.57;6.80;;;20.90;72.00;20.40;97255.00;;;;4974885;28;20290;-89
2023/10/02 08:57:06;;;;;;;14.30;7.30;;;21.00;72.10;20.60;97266.00;;;;4974206;28;20226;-89
2023/10/02 08:59:38;;;;;;;14.47;7.77;;;21.10;71.90;20.70;97269.00;;;;4974766;28;20222;-90
2023/10/02 09:02:13;;;;;;;12.63;6.90;;;21.30;71.60;20.90;97275.00;;;;4975737;28;20264;-89
2023/10/02 09:04:51;;;;;;;12.70;6.77;;;21.40;71.40;21.00;97274.00;;;;4975143;28;20237;-90
2023/10/02 09:07:44;;;;;;;13.43;7.17;;;21.50;71.00;21.20;97270.00;;;;4974402;28;20247;-89
2023/10/02 09:10:24;;;;;;;12.13;6.63;;;21.70;70.80;21.40;97264.00;;;;4956943;28;20195;-89
2023/10/02 09:13:12;;;;;;;12.83;7.27;;;21.90;70.90;21.60;97265.00;;;;4971955;28;20227;-89
2023/10/02 09:15:45;;;;;;;14.00;7.63;;;22.00;70.60;21.70;97269.00;;;;4972599;28;20290;-89
2023/10/02 09:18:34;;;;;;;12.63;7.30;;;22.20;70.20;21.80;97262.00;;;;4971740;28;20212;-89
2023/10/02 09:21:15;;;;;;;11.67;7.20;;;22.30;69.90;21.90;97259.00;;;;4971696;28;20216;-89
2023/10/02 09:23:51;;;;;;;13.17;7.40;;;22.40;69.40;22.10;97258.00;;;;4974544;28;20635;-89
2023/10/02 09:26:23;;;;;;;15.97;8.07;;;22.60;69.10;22.20;97268.00;;;;4975681;28;20231;-89
2023/10/02 09:28:58;;;;;;;13.23;7.80;;;22.70;68.40;22.40;97254.00;;;;4974964;28;20211;-89
2023/10/02 09:31:27;;;;;;;11.90;6.70;;;22.80;68.30;22.50;97248.00;;;;4961158;28;20233;-89
2023/10/02 09:33:55;;;;;;;13.27;7.93;;;23.00;68.50;22.60;97243.00;;;;4971029;28;20199;-89
2023/10/02 09:36:35;;;;;;;14.33;8.00;;;23.10;68.20;22.70;97242.00;;;;4960937;28;20595;-89
2023/10/02 09:39:31;;;;;;;14.83;7.70;;;23.20;67.10;22.90;97247.00;;;;4955085;28;20240;-88
2023/10/02 09:42:05;;;;;;;13.20;7.57;;;23.30;67.00;23.00;97243.00;;;;4954465;28;20254;-89
2023/10/02 09:44:42;;;;;;;12.40;6.80;;;23.40;67.00;23.10;97238.00;;;;4955841;28;20222;-89
2023/10/02 09:47:11;;;;;;;13.93;7.40;;;23.60;66.90;23.30;97244.00;;;;4954907;28;20565;-90
2023/10/02 09:49:48;;;;;;;11.43;7.47;;;23.70;65.70;23.40;97255.00;;;;4969876;28;20238;-89
2023/10/02 09:52:34;;;;;;;13.03;7.20;;;23.80;66.00;23.50;97238.00;;;;4955587;28;20219;-90
2023/10/02 09:55:11;;;;;;;14.93;7.83;;;23.90;65.90;23.60;97243.00;;;;4955658;29;20230;-89
2023/10/02 09:57:49;;;;;;;14.83;7.87;;;24.00;64.70;23.70;97244.00;;;;4955241;28;20227;-90
2023/10/02 10:03:32;;;;;;;11.50;6.80;;;24.20;64.70;23.90;97242.00;;;;4955777;28;20207;-87
2023/10/02 10:06:19;;;;;;;13.30;6.23;;;24.40;64.60;24.00;97237.00;;;;4974730;28;20299;-87
2023/10/02 10:09:27;;;;;;;12.47;7.10;;;24.50;64.30;24.10;97235.00;;;;4976339;28;20206;-87
2023/10/02 10:14:40;;;;;;;11.03;6.90;;;24.70;64.50;24.30;97242.00;;;;4980205;28;20300;-87
2023/10/02 10:17:13;;;;;;;12.50;6.90;;;24.70;64.30;24.40;97239.00;;;;4972380;28;20231;-86
2023/10/02 10:20:22;;;;;;;16.67;7.57;;;24.80;64.30;24.50;97240.00;;;;4973859;28;20187;-88
2023/10/02 10:22:51;;;;;;;14.27;7.50;;;24.90;64.10;24.60;97229.00;;;;4973954;28;20235;-88
2023/10/02 10:25:49;;;;;;;14.83;8.37;;;25.00;63.90;24.70;97232.00;;;;4973503;28;20210;-87
2023/10/02 10:28:27;;;;;;;13.07;6.87;;;25.10;63.20;24.80;97230.00;;;;4973509;28;20669;-87
2023/10/02 10:31:01;;;;;;;12.27;7.07;;;25.20;63.00;24.90;97230.00;;;;4973242;28;20252;-87
2023/10/02 10:33:41;;;;;;;13.43;7.30;;;25.30;63.60;25.00;97228.00;;;;4973259;28;20187;-87
2023/10/02 10:36:41;;;;;;;12.47;7.07;;;25.40;63.20;25.10;97232.00;;;;4973023;28;20223;-87
2023/10/02 10:39:51;;;;;;;13.17;7.27;;;25.50;62.40;25.20;97230.00;;;;4973201;28;20286;-87
2023/10/02 10:42:23;;;;;;;14.57;7.97;;;25.60;61.40;25.30;97229.00;;;;4972534;28;20192;-87
2023/10/02 10:45:01;;;;;;;14.63;7.60;;;25.70;62.10;25.30;97223.00;;;;4973290;28;20221;-87
2023/10/02 10:47:39;;;;;;;13.73;7.10;;;25.70;61.60;25.40;97221.00;;;;4972509;28;20677;-87
2023/10/02 10:50:29;;;;;;;12.30;6.93;;;25.80;61.80;25.40;97217.00;;;;4972921;28;20253;-88
2023/10/02 10:55:54;;;;;;;13.17;6.80;;;25.80;60.40;25.50;97217.00;;;;4971736;28;20263;-87
2023/10/02 10:58:33;;;;;;;16.03;7.90;;;25.90;60.70;25.50;97219.00;;;;4972100;28;20187;-87
2023/10/02 11:01:02;;;;;;;15.30;7.13;;;25.90;59.50;25.50;97210.00;;;;4971342;28;20207;-87
2023/10/02 11:03:31;;;;;;;12.60;7.57;;;25.90;59.90;25.50;97203.00;;;;4971362;28;20239;-87
2023/10/02 11:06:09;;;;;;;12.60;7.17;;;25.90;60.00;25.50;97195.00;;;;4972287;28;20219;-88
2023/10/02 11:08:39;;;;;;;14.43;7.43;;;25.90;60.60;25.50;97203.00;;;;4971534;28;20191;-87
2023/10/02 11:11:18;;;;;;;14.87;7.30;;;25.90;59.70;25.50;97194.00;;;;4971465;28;20211;-87
2023/10/02 11:13:59;;;;;;;15.00;7.80;;;25.90;60.50;25.50;97201.00;;;;4972058;28;20218;-87
2023/10/02 11:16:34;;;;;;;14.13;7.77;;;25.90;59.70;25.60;97196.00;;;;4972581;28;20264;-87
2023/10/02 11:19:25;;;;;;;13.57;7.23;;;25.90;59.30;25.60;97194.00;;;;4973192;28;20202;-87
2023/10/02 11:22:14;;;;;;;15.20;8.10;;;25.90;59.30;25.60;97183.00;;;;4973205;28;20203;-87
2023/10/02 11:25:19;;;;;;;12.33;7.00;;;26.00;58.30;25.60;97185.00;;;;4973474;28;20241;-87
2023/10/02 11:27:57;;;;;;;15.40;7.90;;;25.90;58.30;25.60;97183.00;;;;4972044;28;20603;-87
2023/10/02 11:30:31;;;;;;;12.33;7.13;;;26.00;58.60;25.70;97175.00;;;;4972319;28;20233;-87
2023/10/02 11:33:04;;;;;;;13.03;7.00;;;26.00;58.30;25.70;97180.00;;;;4972355;28;20218;-87
2023/10/02 11:35:37;;;;;;;14.63;8.10;;;26.10;58.70;25.80;97174.00;;;;4972860;28;20183;-87
2023/10/02 11:38:09;;;;;;;14.87;8.23;;;26.10;58.10;25.80;97168.00;;;;4972310;28;20223;-87
2023/10/02 11:40:38;;;;;;;14.73;7.73;;;26.10;57.70;25.90;97172.00;;;;4972477;28;20605;-87
2023/10/02 11:43:05;;;;;;;12.90;7.30;;;26.10;57.90;25.90;97171.00;;;;4972386;28;20570;-87
2023/10/02 11:45:39;;;;;;;15.43;8.53;;;26.20;58.00;25.90;97171.00;;;;4972506;28;20235;-88
2023/10/02 11:48:09;;;;;;;15.03;8.47;;;26.20;57.60;25.90;97162.00;;;;4972737;28;20706;-88